Sheep Ranch, California
Current Conditions -  °F | °C
As of 1:35 PM on Saturday 22 Nov 2014 (Local Time) from KO22 Reporting Station
Broken Clouds Broken Clouds  
Wind Chill: 54°   Ceiling: 800
Heat Index: 54°   Visibility: 3mi
Dew Point: 54°   Wind: 5mph
Humidity: 100%   Direction: 150°SSE
Pressure: 30.12"   Gusts: NA
Location:  38.21°N, 120.46°W
Report Text: KO22 222135Z AUTO 15004KT 3SM BKN008 BKN012 12/12 A3012 RMK AO1
Loading
Personal Weather Stations






























Interactive Weather Map New forecast layout! Learn more

10-Day Weather Forecast

Advertisements
Track Severe Weather on mobile